Time;durP1;ratioP1;P1;durP2;ratioP2;P2;SDS_P1;SDS_P2;PMS_P1;PMS_P2;Temp;Humidity;BMP_temperature;BMP_pressure;BME280_temperature;BME280_humidity;BME280_pressure;Samples;Min_cycle;Max_cycle;Signal;HPM_P1;HPM_P2
2022/05/05 00:00:13;;;;;;;12.10;9.10;;;;;;;7.57;100.00;101892.22;5304074;28;20397;-75
2022/05/05 00:02:44;;;;;;;14.30;9.90;;;;;;;7.47;100.00;101893.75;5292773;28;20043;-74
2022/05/05 00:05:15;;;;;;;12.05;7.93;;;;;;;7.48;100.00;101898.09;5292047;28;20093;-74
2022/05/05 00:07:47;;;;;;;19.10;10.32;;;;;;;7.37;100.00;101900.56;5287055;28;20044;-75
2022/05/05 00:15:58;;;;;;;17.48;10.55;;;;;;;7.21;100.00;101908.63;5292083;28;20104;-74
2022/05/05 00:18:30;;;;;;;12.18;8.60;;;;;;;7.13;100.00;101905.59;5298700;28;20039;-74
2022/05/05 00:21:02;;;;;;;16.40;10.00;;;;;;;7.10;100.00;101904.00;5294321;28;20032;-74
2022/05/05 00:23:33;;;;;;;15.20;10.23;;;;;;;6.99;100.00;101907.31;5292950;28;20375;-74
2022/05/05 00:26:04;;;;;;;16.27;10.48;;;;;;;6.89;100.00;101902.63;5292792;28;20116;-74
2022/05/05 00:28:35;;;;;;;14.23;8.82;;;;;;;6.80;100.00;101899.59;5292327;28;20437;-74
2022/05/05 00:31:10;;;;;;;15.38;9.25;;;;;;;6.77;100.00;101905.09;5295198;28;20102;-74
2022/05/05 00:33:41;;;;;;;17.30;10.60;;;;;;;6.89;100.00;101899.97;5292358;28;20032;-75
2022/05/05 00:36:13;;;;;;;20.45;10.75;;;;;;;6.84;100.00;101910.00;5291663;28;20037;-74
2022/05/05 00:38:44;;;;;;;17.30;10.35;;;;;;;6.87;100.00;101899.22;5291265;28;20387;-74
2022/05/05 00:41:15;;;;;;;13.20;9.98;;;;;;;6.78;100.00;101903.28;5292940;28;20082;-74
2022/05/05 00:43:47;;;;;;;12.25;9.15;;;;;;;6.85;100.00;101894.00;5292646;28;20446;-74
2022/05/05 00:46:18;;;;;;;14.30;10.82;;;;;;;6.86;100.00;101897.53;5292305;28;20037;-74
2022/05/05 00:48:50;;;;;;;14.32;9.63;;;;;;;6.81;100.00;101893.34;5291069;28;20448;-74
2022/05/05 00:51:22;;;;;;;13.85;9.75;;;;;;;6.81;100.00;101896.00;5294014;28;20033;-74
2022/05/05 00:53:54;;;;;;;18.02;10.60;;;;;;;6.82;100.00;101903.00;5287838;27;20036;-74
2022/05/05 00:56:27;;;;;;;15.00;9.85;;;;;;;6.82;100.00;101896.88;5295525;28;20029;-75
2022/05/05 00:59:00;;;;;;;16.92;10.63;;;;;;;6.80;100.00;101901.38;5293384;28;20059;-74
2022/05/05 01:01:33;;;;;;;18.90;11.35;;;;;;;7.05;100.00;101898.13;5292757;28;20025;-74
2022/05/05 01:04:05;;;;;;;15.38;10.68;;;;;;;7.02;100.00;101897.44;5291663;28;20032;-75
2022/05/05 01:06:36;;;;;;;14.30;10.00;;;;;;;7.19;100.00;101903.41;5290457;27;20068;-74
2022/05/05 01:09:08;;;;;;;14.65;9.82;;;;;;;7.22;100.00;101898.88;5292325;28;20032;-75
2022/05/05 01:11:39;;;;;;;19.40;11.88;;;;;;;7.18;100.00;101898.22;5291695;28;20482;-75
2022/05/05 01:14:10;;;;;;;18.92;11.05;;;;;;;7.19;100.00;101895.47;5292825;28;20822;-75
2022/05/05 01:16:43;;;;;;;16.73;10.50;;;;;;;7.21;100.00;101895.38;5289727;28;20466;-74
2022/05/05 01:19:14;;;;;;;12.40;9.13;;;;;;;7.24;100.00;101884.56;5294625;28;20032;-74
2022/05/05 01:21:53;;;;;;;17.17;11.55;;;;;;;7.31;100.00;101879.72;5292324;28;20398;-74
2022/05/05 01:30:04;;;;;;;16.70;8.32;;;;;;;7.70;100.00;101883.47;5290614;28;20051;-74
2022/05/05 01:32:36;;;;;;;16.27;11.63;;;;;;;7.87;100.00;101883.25;5290363;28;20050;-74
2022/05/05 01:35:07;;;;;;;9.88;7.80;;;;;;;7.88;100.00;101892.06;5291440;28;20064;-75
2022/05/05 01:37:38;;;;;;;15.65;9.57;;;;;;;7.80;100.00;101892.56;5293209;28;20028;-74
2022/05/05 01:40:10;;;;;;;16.92;9.40;;;;;;;7.79;100.00;101882.88;5291118;28;20560;-74
2022/05/05 01:42:42;;;;;;;12.18;9.18;;;;;;;7.94;100.00;101884.53;5306772;28;20039;-74
2022/05/05 01:45:13;;;;;;;13.70;9.57;;;;;;;8.03;100.00;101890.19;5288031;27;20390;-74
2022/05/05 01:47:46;;;;;;;10.82;8.55;;;;;;;7.94;100.00;101887.19;5304756;28;20029;-74
2022/05/05 01:50:17;;;;;;;13.63;9.80;;;;;;;7.92;100.00;101896.22;5291373;28;20029;-74
2022/05/05 01:52:48;;;;;;;13.00;10.13;;;;;;;7.83;100.00;101896.81;5303377;28;20481;-75
2022/05/05 01:55:20;;;;;;;18.50;13.00;;;;;;;7.88;100.00;101894.72;5288874;28;20020;-74
2022/05/05 01:57:52;;;;;;;12.75;9.30;;;;;;;8.03;100.00;101898.16;5289716;28;20027;-74
2022/05/05 02:00:24;;;;;;;13.50;8.55;;;;;;;7.99;100.00;101901.97;5288095;28;20037;-74
2022/05/05 02:02:55;;;;;;;12.63;9.50;;;;;;;8.11;100.00;101906.50;5304364;28;20023;-75
2022/05/05 02:05:27;;;;;;;11.43;8.82;;;;;;;8.10;100.00;101899.50;5289242;28;20025;-74
2022/05/05 02:07:58;;;;;;;13.98;10.77;;;;;;;7.99;100.00;101901.97;5291379;28;20023;-75
2022/05/05 02:10:29;;;;;;;12.73;8.90;;;;;;;8.13;100.00;101902.78;5291134;28;20032;-75
2022/05/05 02:13:01;;;;;;;17.20;10.73;;;;;;;8.09;100.00;101900.44;5287243;28;20037;-75
2022/05/05 02:15:34;;;;;;;12.82;10.30;;;;;;;8.06;100.00;101908.59;5303036;28;20048;-75
2022/05/05 02:18:08;;;;;;;16.65;9.98;;;;;;;8.18;100.00;101913.09;5290167;28;20027;-75
2022/05/05 02:20:40;;;;;;;13.95;8.73;;;;;;;8.20;100.00;101907.69;5291036;28;20033;-75
2022/05/05 02:23:11;;;;;;;12.88;9.65;;;;;;;8.30;100.00;101909.63;5294900;28;20447;-75
2022/05/05 02:25:43;;;;;;;14.07;9.73;;;;;;;8.25;100.00;101909.09;5290298;28;20029;-75
2022/05/05 02:28:14;;;;;;;12.60;8.85;;;;;;;8.37;100.00;101910.09;5290365;28;20190;-75
2022/05/05 02:30:45;;;;;;;17.90;10.85;;;;;;;8.42;100.00;101908.00;5291993;28;20041;-74
2022/05/05 02:33:16;;;;;;;14.52;9.85;;;;;;;8.44;100.00;101910.56;5294052;28;20060;-75
2022/05/05 02:38:42;;;;;;;12.85;9.20;;;;;;;8.41;100.00;101910.72;5304800;28;20467;-75
2022/05/05 02:38:47;;;;;;;14.07;9.50;;;;;;;8.49;100.00;101906.66;5288628;28;20040;-75
2022/05/05 02:41:18;;;;;;;13.45;10.75;;;;;;;8.49;100.00;101909.31;5289910;28;20040;-75
2022/05/05 02:43:50;;;;;;;12.45;10.13;;;;;;;8.58;100.00;101907.00;5287427;28;20028;-75
2022/05/05 02:46:21;;;;;;;15.27;10.48;;;;;;;8.50;100.00;101908.34;5288147;28;20096;-75
2022/05/05 02:48:52;;;;;;;14.77;10.73;;;;;;;8.51;100.00;101915.38;5289168;28;20036;-75
2022/05/05 02:51:24;;;;;;;11.98;8.75;;;;;;;8.60;100.00;101905.06;5285912;28;30257;-75
2022/05/05 02:56:45;;;;;;;13.77;10.82;;;;;;;8.56;100.00;101917.72;5290006;28;20395;-75
2022/05/05 02:59:16;;;;;;;14.25;10.98;;;;;;;8.45;100.00;101913.13;5292211;28;20036;-75
2022/05/05 03:01:47;;;;;;;12.15;9.43;;;;;;;8.59;100.00;101908.69;5290950;28;20020;-75
2022/05/05 03:04:18;;;;;;;13.90;9.40;;;;;;;8.54;100.00;101908.13;5301250;28;20155;-74
2022/05/05 03:06:50;;;;;;;18.05;11.00;;;;;;;8.51;100.00;101911.88;5300727;28;20033;-73
2022/05/05 03:09:21;;;;;;;15.70;10.38;;;;;;;8.56;100.00;101907.09;5301586;28;20045;-73
2022/05/05 03:11:52;;;;;;;14.73;8.60;;;;;;;8.61;100.00;101906.78;5300490;28;20021;-74
2022/05/05 03:14:24;;;;;;;11.88;9.10;;;;;;;8.66;100.00;101902.84;5295762;28;20612;-74
2022/05/05 03:16:55;;;;;;;13.25;10.32;;;;;;;8.76;100.00;101908.38;5290255;28;20444;-74
2022/05/05 03:19:26;;;;;;;13.27;9.50;;;;;;;8.78;100.00;101909.13;5294853;28;20032;-74
2022/05/05 03:21:58;;;;;;;10.18;8.00;;;;;;;8.84;100.00;101902.56;5305303;28;20032;-74
2022/05/05 03:24:29;;;;;;;14.35;9.68;;;;;;;8.84;100.00;101903.41;5289891;28;20051;-74
2022/05/05 03:27:01;;;;;;;14.00;9.40;;;;;;;8.94;100.00;101903.63;5294972;28;20048;-74
2022/05/05 03:29:32;;;;;;;13.88;9.32;;;;;;;9.01;100.00;101904.03;5291194;28;20038;-74
2022/05/05 03:32:04;;;;;;;12.65;9.48;;;;;;;9.00;100.00;101911.19;5288712;28;20059;-74
2022/05/05 03:34:35;;;;;;;13.30;9.23;;;;;;;9.04;100.00;101915.31;5292713;28;20068;-74
2022/05/05 03:37:06;;;;;;;11.10;8.57;;;;;;;8.93;100.00;101920.53;5293846;28;20024;-74
2022/05/05 03:39:38;;;;;;;12.07;9.10;;;;;;;8.86;100.00;101913.94;5292270;28;20112;-74
2022/05/05 03:42:09;;;;;;;15.25;9.68;;;;;;;8.86;100.00;101912.13;5292883;28;20033;-74
2022/05/05 03:44:40;;;;;;;14.23;9.90;;;;;;;8.85;100.00;101921.09;5292664;28;20111;-74
2022/05/05 03:47:12;;;;;;;11.20;9.27;;;;;;;8.86;100.00;101912.13;5291319;28;20029;-74
2022/05/05 03:49:43;;;;;;;14.73;10.48;;;;;;;8.79;100.00;101920.66;5290459;28;20027;-74
2022/05/05 03:52:14;;;;;;;16.92;10.98;;;;;;;8.84;100.00;101921.19;5288896;28;20025;-74
2022/05/05 03:54:46;;;;;;;13.02;9.80;;;;;;;8.82;100.00;101917.78;5289424;28;22987;-74
2022/05/05 03:57:17;;;;;;;15.85;9.50;;;;;;;8.82;100.00;101918.63;5293537;28;20141;-74
2022/05/05 03:59:48;;;;;;;17.48;11.50;;;;;;;8.79;100.00;101931.28;5287978;28;20063;-74
2022/05/05 04:02:19;;;;;;;20.23;12.73;;;;;;;8.75;100.00;101933.31;5287484;28;20028;-74
2022/05/05 04:04:51;;;;;;;16.77;11.23;;;;;;;8.74;100.00;101930.75;5294517;27;20040;-74
2022/05/05 04:07:22;;;;;;;15.27;11.45;;;;;;;8.75;100.00;101938.63;5291992;28;20051;-74
2022/05/05 04:09:54;;;;;;;14.07;10.02;;;;;;;8.92;100.00;101937.47;5292851;28;20422;-74
2022/05/05 04:12:25;;;;;;;16.65;12.00;;;;;;;8.80;100.00;101933.84;5291545;28;20071;-74
2022/05/05 04:14:56;;;;;;;16.80;11.48;;;;;;;8.91;100.00;101937.59;5292660;28;20032;-74
2022/05/05 04:17:27;;;;;;;15.35;11.15;;;;;;;8.83;100.00;101940.75;5294512;28;20435;-74
2022/05/05 04:19:59;;;;;;;21.08;12.73;;;;;;;8.74;100.00;101941.38;5289892;28;20029;-75
2022/05/05 04:22:30;;;;;;;11.60;10.15;;;;;;;8.84;100.00;101945.13;5291437;28;20049;-75
2022/05/05 04:25:01;;;;;;;14.80;10.38;;;;;;;8.91;100.00;101948.22;5291004;28;20111;-75
2022/05/05 04:27:33;;;;;;;18.30;10.95;;;;;;;8.93;100.00;101949.81;5305190;27;20171;-75
2022/05/05 04:30:05;;;;;;;18.80;10.93;;;;;;;9.01;100.00;101949.28;5290440;28;20136;-75
2022/05/05 04:32:37;;;;;;;18.95;12.65;;;;;;;9.01;100.00;101955.47;5295841;28;20041;-75
2022/05/05 04:35:08;;;;;;;20.95;13.15;;;;;;;8.99;100.00;101959.19;5293257;28;20028;-75
2022/05/05 04:37:40;;;;;;;15.13;10.20;;;;;;;9.14;100.00;101955.47;5296651;28;20052;-75
2022/05/05 04:40:11;;;;;;;13.90;10.30;;;;;;;9.28;100.00;101958.03;5290233;28;20598;-75
2022/05/05 04:42:42;;;;;;;15.68;11.07;;;;;;;9.34;100.00;101955.91;5296199;28;20025;-75
2022/05/05 04:45:14;;;;;;;14.20;11.32;;;;;;;9.42;100.00;101959.72;5292947;28;20044;-75
2022/05/05 04:47:45;;;;;;;15.80;10.93;;;;;;;9.48;100.00;101958.44;5293925;28;20874;-75
2022/05/05 04:50:17;;;;;;;14.45;10.98;;;;;;;9.54;100.00;101957.19;5293385;28;20135;-75
2022/05/05 04:52:48;;;;;;;16.05;10.20;;;;;;;9.66;100.00;101964.28;5293629;27;20064;-74
2022/05/05 04:55:19;;;;;;;15.30;10.18;;;;;;;9.72;100.00;101965.66;5304985;27;20021;-74
2022/05/05 04:57:50;;;;;;;13.65;10.32;;;;;;;9.74;100.00;101969.91;5288481;28;20111;-75
2022/05/05 05:00:22;;;;;;;15.32;11.05;;;;;;;9.75;100.00;101960.97;5288266;28;20475;-75
2022/05/05 05:02:54;;;;;;;18.73;13.57;;;;;;;9.62;100.00;101970.78;5294371;28;20037;-74
2022/05/05 05:05:25;;;;;;;19.77;13.02;;;;;;;9.57;100.00;101968.47;5293173;28;20029;-75
2022/05/05 05:07:56;;;;;;;19.52;13.35;;;;;;;9.55;100.00;101973.03;5298663;28;20035;-75
2022/05/05 05:10:27;;;;;;;27.85;14.30;;;;;;;9.56;100.00;101976.56;5305401;28;20055;-75
2022/05/05 05:12:59;;;;;;;15.98;12.15;;;;;;;9.57;100.00;101973.78;5302747;28;20029;-75
2022/05/05 05:15:30;;;;;;;21.33;12.27;;;;;;;9.59;100.00;101977.19;5290487;28;20057;-75
2022/05/05 05:18:01;;;;;;;20.63;12.52;;;;;;;9.62;100.00;101976.09;5302453;28;20021;-75
2022/05/05 05:20:32;;;;;;;22.58;13.95;;;;;;;9.64;100.00;101982.19;5294321;28;20031;-75
2022/05/05 05:23:04;;;;;;;19.67;12.32;;;;;;;9.69;100.00;101979.19;5284160;28;20017;-75
2022/05/05 05:25:35;;;;;;;24.67;14.02;;;;;;;9.71;100.00;101983.47;5290108;28;20029;-74
2022/05/05 05:28:06;;;;;;;16.05;10.50;;;;;;;9.92;100.00;101978.44;5290394;28;20113;-75
2022/05/05 05:30:38;;;;;;;16.80;10.32;;;;;;;9.94;100.00;101992.47;5298516;28;20120;-75
2022/05/05 05:33:09;;;;;;;15.48;11.80;;;;;;;9.82;100.00;101988.88;5288921;28;20131;-75
2022/05/05 05:35:42;;;;;;;19.20;11.98;;;;;;;9.96;100.00;101989.72;5284775;28;20056;-75
2022/05/05 05:38:17;;;;;;;19.08;12.48;;;;;;;10.00;100.00;101996.50;5295267;28;20382;-75
2022/05/05 05:40:48;;;;;;;19.77;11.65;;;;;;;10.11;100.00;102004.56;5291651;28;20505;-75
2022/05/05 05:43:19;;;;;;;23.85;13.00;;;;;;;10.08;100.00;102002.16;5290671;28;20040;-75
2022/05/05 05:45:51;;;;;;;27.20;13.38;;;;;;;10.10;100.00;102002.88;5285514;28;20024;-74
2022/05/05 05:48:22;;;;;;;21.45;13.40;;;;;;;10.10;100.00;102000.22;5285920;28;20163;-75
2022/05/05 05:50:53;;;;;;;19.15;13.45;;;;;;;10.19;100.00;102002.22;5282690;28;20496;-74
2022/05/05 05:53:25;;;;;;;22.92;14.27;;;;;;;10.40;100.00;102015.81;5282959;28;20037;-74
2022/05/05 05:55:56;;;;;;;20.60;13.93;;;;;;;10.72;100.00;102007.25;5283222;28;20501;-75
2022/05/05 05:58:27;;;;;;;25.40;14.15;;;;;;;11.00;100.00;102009.66;5282207;28;20029;-75
2022/05/05 06:00:58;;;;;;;26.48;13.85;;;;;;;11.25;100.00;102008.63;5281216;28;42083;-75
2022/05/05 06:06:20;;;;;;;19.58;11.93;;;;;;;11.90;100.00;102013.34;5281832;28;20026;-75
2022/05/05 06:08:51;;;;;;;21.70;13.60;;;;;;;12.32;100.00;102009.97;5282816;28;20479;-75
2022/05/05 06:11:23;;;;;;;18.65;12.32;;;;;;;12.54;100.00;102005.53;5296809;28;20090;-75
2022/05/05 06:13:54;;;;;;;20.02;12.63;;;;;;;13.20;100.00;102008.00;5282526;28;20104;-75
2022/05/05 06:16:27;;;;;;;21.70;13.15;;;;;;;13.24;100.00;102015.66;5280095;28;20060;-75
2022/05/05 06:18:58;;;;;;;27.10;14.45;;;;;;;13.40;100.00;102014.38;5298168;28;20032;-75
2022/05/05 06:21:29;;;;;;;25.02;14.13;;;;;;;13.50;100.00;102017.09;5306307;28;20066;-75
2022/05/05 06:24:01;;;;;;;17.65;13.88;;;;;;;13.60;100.00;102008.16;5313207;27;20037;-75
2022/05/05 06:26:32;;;;;;;23.95;14.18;;;;;;;13.94;100.00;102015.06;5305896;28;20037;-75
2022/05/05 06:29:04;;;;;;;24.75;12.95;;;;;;;14.28;100.00;102015.56;5314792;27;20035;-75
2022/05/05 06:31:36;;;;;;;23.30;12.65;;;;;;;14.65;100.00;102009.56;5301275;27;20741;-78
2022/05/05 06:34:09;;;;;;;26.77;13.63;;;;;;;15.34;100.00;102022.91;5310712;28;20038;-76
2022/05/05 06:36:40;;;;;;;24.20;12.60;;;;;;;15.41;100.00;102021.34;5299021;27;20033;-78
2022/05/05 06:39:12;;;;;;;20.42;12.13;;;;;;;15.92;100.00;102028.16;5313918;28;20073;-78
2022/05/05 06:41:43;;;;;;;19.70;13.18;;;;;;;16.26;100.00;102014.91;5322434;28;20016;-77
2022/05/05 06:44:14;;;;;;;18.80;12.63;;;;;;;16.61;100.00;102017.81;5316722;28;20067;-78
2022/05/05 06:46:46;;;;;;;19.33;13.05;;;;;;;16.62;100.00;102014.97;5283967;27;20060;-78
2022/05/05 06:49:17;;;;;;;19.13;12.80;;;;;;;17.50;100.00;102027.63;5281632;28;20117;-79
2022/05/05 06:51:49;;;;;;;20.90;13.55;;;;;;;18.03;100.00;102019.50;5302996;28;20386;-78
2022/05/05 06:54:21;;;;;;;23.67;15.50;;;;;;;17.98;100.00;102021.81;5301292;28;20398;-78
2022/05/05 06:56:52;;;;;;;25.05;14.50;;;;;;;18.63;100.00;102023.84;5302972;28;20027;-77
2022/05/05 06:59:24;;;;;;;21.02;14.45;;;;;;;19.15;100.00;102022.72;5299726;28;20032;-77
2022/05/05 07:02:00;;;;;;;27.20;17.13;;;;;;;19.71;100.00;102034.44;5301551;28;20463;-77
2022/05/05 07:07:22;;;;;;;22.65;17.25;;;;;;;20.37;100.00;102032.31;5323432;28;20024;-76
2022/05/05 07:12:43;;;;;;;38.13;26.58;;;;;;;21.43;90.58;102035.19;5281147;28;20029;-77
2022/05/05 07:15:14;;;;;;;28.98;22.33;;;;;;;21.46;86.30;102037.59;5281000;28;20437;-76
2022/05/05 07:17:47;;;;;;;34.75;25.33;;;;;;;22.25;84.77;102045.13;5310726;27;20137;-77
2022/05/05 07:20:18;;;;;;;38.97;25.85;;;;;;;22.76;77.19;102035.25;5313786;27;20028;-75
2022/05/05 07:22:51;;;;;;;33.97;27.67;;;;;;;23.34;72.25;102044.13;5297506;28;20061;-77
2022/05/05 07:25:23;;;;;;;37.33;27.50;;;;;;;23.91;65.20;102055.81;5288670;28;20033;-77
2022/05/05 07:27:54;;;;;;;36.38;29.20;;;;;;;23.64;65.52;102052.06;5280222;28;20495;-78
2022/05/05 07:30:26;;;;;;;40.20;31.52;;;;;;;24.38;59.37;102053.25;5281974;28;20017;-76
2022/05/05 07:32:57;;;;;;;40.97;31.60;;;;;;;24.99;58.74;102054.25;5278789;28;20383;-77
2022/05/05 07:35:29;;;;;;;35.78;29.38;;;;;;;24.74;56.71;102054.88;5281259;28;20467;-78
2022/05/05 07:38:00;;;;;;;33.50;27.92;;;;;;;23.29;55.80;102048.47;5280601;28;20387;-78
2022/05/05 07:40:31;;;;;;;39.13;30.13;;;;;;;24.81;55.67;102063.06;5296965;28;20367;-78
2022/05/05 07:43:02;;;;;;;35.40;29.35;;;;;;;23.87;52.61;102051.81;5281587;28;20013;-78
2022/05/05 07:45:34;;;;;;;37.50;27.93;;;;;;;24.12;55.60;102057.59;5284719;28;20352;-78
2022/05/05 07:48:05;;;;;;;38.87;30.80;;;;;;;23.81;55.27;102062.66;5284071;28;20718;-78
2022/05/05 07:50:37;;;;;;;35.47;28.35;;;;;;;23.82;56.61;102067.91;5284957;28;20354;-78
2022/05/05 07:53:08;;;;;;;39.13;31.45;;;;;;;23.25;58.92;102058.06;5293274;28;20044;-78
2022/05/05 07:55:40;;;;;;;33.55;28.75;;;;;;;23.89;58.35;102062.50;5303477;28;20106;-78
2022/05/05 07:58:11;;;;;;;33.58;29.27;;;;;;;25.37;50.39;102067.28;5299170;28;20025;-78
2022/05/05 08:00:42;;;;;;;35.77;28.27;;;;;;;25.62;47.75;102062.84;5287168;28;20074;-78
2022/05/05 08:03:13;;;;;;;36.10;28.08;;;;;;;24.69;47.79;102071.84;5301206;28;20287;-78
2022/05/05 08:05:45;;;;;;;33.80;27.73;;;;;;;26.06;47.36;102073.25;5305238;28;20021;-78
2022/05/05 08:08:16;;;;;;;31.52;25.52;;;;;;;25.14;46.51;102071.28;5304968;28;20397;-78
2022/05/05 08:10:53;;;;;;;31.50;26.95;;;;;;;24.86;49.02;102080.47;5304660;28;20478;-77
2022/05/05 08:13:24;;;;;;;35.67;29.02;;;;;;;25.32;48.68;102069.81;5302626;28;20028;-77
2022/05/05 08:15:56;;;;;;;39.70;31.33;;;;;;;24.97;49.00;102073.56;5304687;28;20471;-77
2022/05/05 08:18:28;;;;;;;38.03;30.33;;;;;;;24.33;50.96;102075.72;5304068;28;20013;-77
2022/05/05 08:20:59;;;;;;;37.58;30.40;;;;;;;24.05;51.72;102067.59;5303255;28;20024;-77
2022/05/05 08:23:31;;;;;;;34.00;26.27;;;;;;;23.46;55.74;102076.22;5303814;28;20067;-77
2022/05/05 08:28:52;;;;;;;35.15;27.27;;;;;;;22.82;60.78;102083.41;5308221;28;20064;-77
2022/05/05 08:31:23;;;;;;;38.47;28.65;;;;;;;22.10;69.49;102079.63;5304702;28;20051;-77
